createdAt,value
2018-12-17T00:02:06.135Z,39.90
2018-12-17T00:04:35.408Z,41.05
2018-12-17T00:07:04.721Z,39.00
2018-12-17T00:09:33.618Z,40.38
2018-12-17T00:12:03.087Z,43.80
2018-12-17T00:14:31.566Z,40.00
2018-12-17T00:17:00.465Z,39.35
2018-12-17T00:19:29.351Z,42.88
2018-12-17T00:21:58.595Z,43.60
2018-12-17T00:24:27.491Z,40.67
2018-12-17T00:26:56.387Z,44.63
2018-12-17T00:29:25.290Z,42.53
2018-12-17T00:31:54.414Z,40.08
2018-12-17T00:34:22.914Z,38.73
2018-12-17T00:36:52.197Z,44.35
2018-12-17T00:39:21.483Z,40.85
2018-12-17T00:41:49.978Z,40.67
2018-12-17T00:44:18.868Z,40.70
2018-12-17T00:46:47.768Z,44.18
2018-12-17T00:49:16.294Z,46.77
2018-12-17T00:51:45.171Z,43.85
2018-12-17T00:54:14.009Z,41.53
2018-12-17T00:56:42.920Z,40.70
2018-12-17T00:59:11.420Z,41.40
2018-12-17T01:01:40.324Z,39.85
2018-12-17T01:04:09.240Z,39.48
2018-12-17T01:06:38.160Z,40.85
2018-12-17T01:09:08.061Z,46.60
2018-12-17T01:11:37.942Z,42.62
2018-12-17T01:14:06.473Z,40.52
2018-12-17T01:16:35.405Z,40.78
2018-12-17T01:19:04.742Z,39.95
2018-12-17T01:21:34.146Z,42.30
2018-12-17T01:24:03.539Z,41.45
2018-12-17T01:26:32.443Z,45.52
2018-12-17T01:29:01.328Z,42.30
2018-12-17T01:31:29.845Z,44.53
2018-12-17T01:33:58.360Z,39.25
2018-12-17T01:36:27.247Z,38.33
2018-12-17T01:38:56.127Z,43.23
2018-12-17T01:41:25.657Z,41.48
2018-12-17T01:43:54.176Z,44.58
2018-12-17T01:46:22.698Z,41.83
2018-12-17T01:48:51.591Z,42.05
2018-12-17T01:51:20.096Z,41.98
2018-12-17T01:53:49.417Z,43.90
2018-12-17T01:56:18.318Z,42.60
2018-12-17T01:58:47.628Z,44.48
2018-12-17T02:01:16.555Z,42.00
2018-12-17T02:03:45.492Z,40.75
2018-12-17T02:06:14.423Z,44.15
2018-12-17T02:08:43.841Z,44.53
2018-12-17T02:11:14.153Z,45.23
2018-12-17T02:13:43.043Z,46.08
2018-12-17T02:16:11.974Z,44.35
2018-12-17T02:18:40.500Z,43.55
2018-12-17T02:21:09.395Z,39.83
2018-12-17T02:23:38.288Z,45.45
2018-12-17T02:26:07.207Z,45.92
2018-12-17T02:28:36.382Z,43.30
2018-12-17T02:31:05.969Z,45.03
2018-12-17T02:33:35.070Z,48.92
2018-12-17T02:36:04.359Z,47.23
2018-12-17T02:38:32.848Z,43.52
2018-12-17T02:41:01.345Z,45.67
2018-12-17T02:43:30.229Z,43.42
2018-12-17T02:45:58.742Z,41.08
2018-12-17T02:48:27.622Z,48.02
2018-12-17T02:50:56.464Z,53.58
2018-12-17T02:53:24.983Z,41.88
2018-12-17T02:55:53.537Z,44.18
2018-12-17T02:58:22.287Z,53.35
2018-12-17T03:00:50.816Z,45.52
2018-12-17T03:03:19.331Z,44.93
2018-12-17T03:05:48.230Z,46.63
2018-12-17T03:08:17.520Z,48.40
2018-12-17T03:10:46.044Z,47.93
2018-12-17T03:13:15.337Z,52.55
2018-12-17T03:15:44.136Z,44.95
2018-12-17T03:18:13.044Z,50.35
2018-12-17T03:20:41.930Z,42.80
2018-12-17T03:23:10.824Z,43.25
2018-12-17T03:25:40.099Z,46.28
2018-12-17T03:28:08.608Z,44.25
2018-12-17T03:30:37.953Z,46.75
2018-12-17T03:33:07.490Z,44.30
2018-12-17T03:35:35.994Z,47.20
2018-12-17T03:38:05.287Z,47.33
2018-12-17T03:40:34.154Z,44.10
2018-12-17T03:43:03.061Z,45.15
2018-12-17T03:45:31.940Z,48.95
2018-12-17T03:48:00.825Z,47.08
2018-12-17T03:50:29.614Z,43.52
2018-12-17T03:52:58.113Z,46.77
2018-12-17T03:55:26.621Z,50.67
2018-12-17T03:57:55.127Z,46.20
2018-12-17T04:00:23.664Z,46.30
2018-12-17T04:02:52.569Z,45.17
2018-12-17T04:05:21.059Z,41.75
2018-12-17T04:07:49.956Z,45.58
2018-12-17T04:10:19.203Z,39.27
2018-12-17T04:12:48.122Z,43.08
2018-12-17T04:15:17.563Z,41.83
2018-12-17T04:17:46.516Z,48.17
2018-12-17T04:20:15.334Z,46.85
2018-12-17T04:22:43.843Z,44.65
2018-12-17T04:25:12.348Z,41.23
2018-12-17T04:27:40.855Z,42.10
2018-12-17T04:32:49.164Z,40.52
2018-12-17T04:35:17.664Z,44.33
2018-12-17T04:37:46.508Z,41.65
2018-12-17T04:40:15.336Z,41.05
2018-12-17T04:42:44.257Z,39.83
2018-12-17T04:45:13.559Z,42.55
2018-12-17T04:47:42.058Z,44.35
2018-12-17T04:50:11.411Z,47.27
2018-12-17T04:52:40.331Z,38.17
2018-12-17T04:55:09.622Z,42.62
2018-12-17T04:57:38.522Z,39.40
2018-12-17T05:00:10.021Z,44.23
2018-12-17T05:02:38.945Z,42.20
2018-12-17T05:05:08.289Z,41.80
2018-12-17T05:07:37.207Z,35.03
2018-12-17T05:10:07.022Z,44.93
2018-12-17T05:12:36.173Z,43.85
2018-12-17T05:15:05.832Z,40.35
2018-12-17T05:17:35.245Z,39.30
2018-12-17T05:20:04.584Z,40.60
2018-12-17T05:22:33.103Z,38.40
2018-12-17T05:25:02.387Z,40.15
2018-12-17T05:27:31.275Z,40.88
2018-12-17T05:30:00.594Z,40.25
2018-12-17T05:32:29.092Z,41.90
2018-12-17T05:34:58.054Z,37.05
2018-12-17T05:37:26.543Z,41.13
2018-12-17T05:39:56.336Z,40.35
2018-12-17T05:42:25.215Z,37.80
2018-12-17T05:44:54.109Z,45.70
2018-12-17T05:47:22.600Z,42.35
2018-12-17T05:49:51.486Z,41.37
2018-12-17T05:52:20.400Z,37.63
2018-12-17T05:54:49.281Z,38.50
2018-12-17T05:57:17.805Z,36.60
2018-12-17T05:59:46.363Z,50.92
2018-12-17T06:02:19.364Z,38.08
2018-12-17T06:16:53.493Z,37.85
2018-12-17T06:19:23.788Z,38.53
2018-12-17T06:21:54.064Z,40.55
2018-12-17T06:24:46.722Z,35.95
2018-12-17T06:27:16.864Z,38.80
2018-12-17T06:29:45.415Z,38.00
2018-12-17T06:32:14.343Z,41.30
2018-12-17T06:34:42.952Z,40.03
2018-12-17T06:37:11.491Z,39.25
2018-12-17T06:39:40.745Z,40.00
2018-12-17T06:46:14.014Z,36.23
2018-12-17T06:48:59.427Z,36.40
2018-12-17T06:51:48.270Z,38.53
2018-12-17T07:25:55.126Z,34.30
2018-12-17T07:28:23.820Z,34.90
2018-12-17T07:30:52.941Z,30.95
2018-12-17T07:33:22.946Z,33.13
2018-12-17T07:35:52.112Z,32.80
2018-12-17T07:38:20.682Z,33.38
2018-12-17T07:40:50.238Z,29.25
2018-12-17T07:43:24.843Z,33.10
2018-12-17T07:45:53.451Z,38.45
2018-12-17T07:48:22.475Z,36.20
2018-12-17T07:50:51.428Z,32.45
2018-12-17T07:53:20.829Z,32.67
2018-12-17T07:55:49.381Z,32.65
2018-12-17T07:58:18.306Z,35.33
2018-12-17T08:00:47.046Z,34.50
2018-12-17T08:03:16.014Z,33.15
2018-12-17T08:05:44.624Z,35.23
2018-12-17T08:08:14.026Z,34.30
2018-12-17T08:10:43.242Z,35.23
2018-12-17T08:13:12.215Z,34.60
2018-12-17T08:15:41.919Z,38.20
2018-12-17T08:18:21.587Z,34.10
2018-12-17T08:20:51.352Z,35.08
2018-12-17T08:23:21.223Z,34.35
2018-12-17T08:25:50.106Z,42.15
2018-12-17T08:28:19.077Z,34.58
2018-12-17T08:30:48.036Z,34.13
2018-12-17T08:33:16.661Z,41.40
2018-12-17T08:35:45.627Z,32.90
2018-12-17T08:38:14.590Z,34.13
2018-12-17T08:40:43.674Z,36.08
2018-12-17T08:43:12.834Z,34.80
2018-12-17T08:45:42.927Z,39.50
2018-12-17T08:48:11.780Z,37.03
2018-12-17T08:50:40.940Z,35.38
2018-12-17T08:53:16.516Z,37.33
2018-12-17T08:55:45.153Z,38.20
2018-12-17T08:58:14.882Z,39.40
2018-12-17T09:00:44.235Z,40.45
2018-12-17T09:03:13.695Z,41.25
2018-12-17T09:05:43.768Z,44.45
2018-12-17T09:08:12.337Z,45.50
2018-12-17T09:10:42.071Z,49.33
2018-12-17T09:13:10.647Z,46.65
2018-12-17T09:15:39.178Z,39.55
2018-12-17T09:18:07.781Z,44.35
2018-12-17T09:20:42.821Z,46.02
2018-12-17T09:23:11.396Z,47.73
2018-12-17T09:25:40.779Z,41.05
2018-12-17T09:28:10.146Z,44.77
2018-12-17T09:30:41.455Z,41.30
2018-12-17T09:33:10.108Z,44.08
2018-12-17T09:35:39.072Z,42.40
2018-12-17T09:38:08.086Z,46.02
2018-12-17T09:40:37.449Z,43.92
2018-12-17T09:43:06.773Z,42.75
2018-12-17T09:45:36.140Z,39.95
2018-12-17T09:48:05.516Z,50.12
2018-12-17T09:50:34.417Z,41.37
2018-12-17T09:53:03.431Z,47.00
2018-12-17T09:55:32.026Z,46.92
2018-12-17T09:58:00.636Z,42.70
2018-12-17T10:00:29.487Z,40.67
2018-12-17T10:02:58.483Z,45.83
2018-12-17T10:05:27.995Z,44.90
2018-12-17T10:07:57.276Z,49.88
2018-12-17T10:10:25.868Z,51.42
2018-12-17T10:12:55.340Z,44.33
2018-12-17T10:15:24.567Z,47.45
2018-12-17T10:17:54.351Z,43.17
2018-12-17T10:20:23.895Z,45.80
2018-12-17T10:22:52.891Z,48.45
2018-12-17T10:25:21.825Z,47.43
2018-12-17T10:27:50.402Z,52.48
2018-12-17T10:30:19.394Z,43.92
2018-12-17T10:32:48.048Z,45.33
2018-12-17T10:35:16.934Z,50.58
2018-12-17T10:37:46.395Z,49.20
2018-12-17T10:40:15.793Z,49.30
2018-12-17T10:42:45.591Z,47.03
2018-12-17T10:45:14.543Z,54.80
2018-12-17T10:47:44.758Z,51.55
2018-12-17T10:50:14.180Z,49.03
2018-12-17T10:52:42.975Z,48.70
2018-12-17T10:55:12.884Z,50.58
2018-12-17T10:57:42.496Z,47.93
2018-12-17T11:00:17.167Z,45.15
2018-12-17T11:02:46.888Z,47.50
2018-12-17T11:05:17.640Z,48.65
2018-12-17T11:07:48.750Z,47.15
2018-12-17T11:10:22.704Z,49.95
2018-12-17T11:12:57.383Z,51.60
2018-12-17T11:15:28.074Z,51.02
2018-12-17T11:18:08.739Z,49.90
2018-12-17T11:20:37.828Z,47.50
2018-12-17T11:23:07.547Z,48.58
2018-12-17T11:25:36.045Z,57.73
2018-12-17T11:28:05.005Z,46.48
2018-12-17T11:30:33.528Z,47.75
2018-12-17T11:33:02.025Z,51.50
2018-12-17T11:35:30.952Z,45.73
2018-12-17T11:37:59.448Z,45.00
2018-12-17T11:40:28.315Z,48.85
2018-12-17T11:42:57.224Z,51.35
2018-12-17T11:45:26.064Z,47.20
2018-12-17T11:47:54.988Z,52.67
2018-12-17T11:50:23.885Z,49.55
2018-12-17T11:52:52.852Z,48.17
2018-12-17T11:55:21.731Z,42.25
2018-12-17T11:58:06.687Z,43.92
2018-12-17T12:00:36.289Z,42.70
2018-12-17T12:03:05.695Z,43.23
2018-12-17T12:05:35.961Z,38.25
2018-12-17T12:08:05.334Z,46.75
2018-12-17T12:10:34.654Z,45.55
2018-12-17T12:13:03.937Z,46.95
2018-12-17T12:15:32.831Z,41.13
2018-12-17T12:18:01.722Z,42.75
2018-12-17T12:20:30.635Z,47.40
2018-12-17T12:22:59.558Z,41.42
2018-12-17T12:25:28.492Z,49.42
2018-12-17T12:27:57.015Z,51.48
2018-12-17T12:30:25.915Z,46.58
2018-12-17T12:32:55.331Z,39.92
2018-12-17T12:35:24.932Z,39.48
2018-12-17T12:37:54.273Z,39.95
2018-12-17T12:40:23.162Z,45.08
2018-12-17T12:42:52.068Z,37.25
2018-12-17T12:45:21.362Z,40.38
2018-12-17T12:47:49.875Z,42.65
2018-12-17T12:50:18.411Z,43.30
2018-12-17T12:52:47.302Z,42.23
2018-12-17T12:55:15.831Z,43.48
2018-12-17T12:57:44.358Z,41.83
2018-12-17T13:00:14.813Z,43.45
2018-12-17T13:02:43.721Z,45.58
2018-12-17T13:05:13.011Z,44.85
2018-12-17T13:07:41.541Z,43.35
2018-12-17T13:10:13.308Z,43.98
2018-12-17T13:12:42.642Z,45.08
2018-12-17T13:15:11.948Z,42.27
2018-12-17T13:17:40.503Z,45.52
2018-12-17T13:20:10.421Z,44.20
2018-12-17T13:22:39.606Z,46.45
2018-12-17T13:25:13.379Z,41.05
2018-12-17T13:27:42.302Z,43.78
2018-12-17T13:30:11.863Z,42.58
2018-12-17T13:32:41.799Z,50.85
2018-12-17T13:35:10.407Z,41.98
2018-12-17T13:37:46.380Z,42.23
2018-12-17T13:40:16.097Z,46.85
2018-12-17T13:42:45.304Z,45.95
2018-12-17T13:45:14.517Z,52.10
2018-12-17T13:47:43.437Z,46.30
2018-12-17T13:50:17.799Z,49.18
2018-12-17T13:52:47.293Z,48.00
2018-12-17T13:55:16.640Z,47.70
2018-12-17T13:57:45.922Z,51.05
2018-12-17T14:00:14.876Z,48.95
2018-12-17T14:02:43.421Z,49.35
2018-12-17T14:05:13.296Z,48.30
2018-12-17T14:07:41.840Z,48.55
2018-12-17T14:10:16.929Z,55.83
2018-12-17T14:12:46.491Z,49.18
2018-12-17T14:15:14.996Z,54.42
2018-12-17T14:17:47.877Z,54.10
2018-12-17T14:20:22.512Z,56.25
2018-12-17T14:22:51.240Z,53.02
2018-12-17T14:25:19.755Z,67.42
2018-12-17T14:27:48.268Z,55.75
2018-12-17T14:30:17.208Z,44.42
2018-12-17T14:32:45.737Z,51.88
2018-12-17T14:35:15.274Z,58.05
2018-12-17T14:37:49.322Z,56.92
2018-12-17T14:40:17.870Z,48.85
2018-12-17T14:42:47.203Z,49.55
2018-12-17T14:45:15.734Z,52.70
2018-12-17T14:47:44.271Z,48.50
2018-12-17T14:50:13.586Z,50.00
2018-12-17T14:52:42.588Z,55.33
2018-12-17T14:55:12.371Z,55.88
2018-12-17T14:57:41.311Z,51.25
2018-12-17T15:00:11.047Z,54.20
2018-12-17T15:02:40.332Z,52.60
2018-12-17T15:05:09.773Z,52.25
2018-12-17T15:07:39.700Z,55.40
2018-12-17T15:10:09.028Z,61.60
2018-12-17T15:12:37.952Z,51.50
2018-12-17T15:15:09.133Z,56.45
2018-12-17T15:17:38.103Z,48.95
2018-12-17T15:20:08.335Z,49.38
2018-12-17T15:22:37.263Z,55.52
2018-12-17T15:25:07.264Z,55.78
2018-12-17T15:27:36.221Z,53.05
2018-12-17T15:30:05.878Z,53.85
2018-12-17T15:32:34.864Z,63.55
2018-12-17T15:35:04.272Z,51.95
2018-12-17T15:37:33.219Z,57.58
2018-12-17T15:40:01.720Z,57.98
2018-12-17T15:42:30.665Z,47.10
2018-12-17T15:44:59.188Z,59.27
2018-12-17T15:47:28.142Z,63.48
2018-12-17T15:49:57.079Z,58.40
2018-12-17T15:52:26.059Z,64.75
2018-12-17T15:54:55.060Z,55.78
2018-12-17T15:57:24.157Z,58.48
2018-12-17T15:59:53.064Z,50.10
2018-12-17T16:02:21.972Z,60.58
2018-12-17T16:04:50.851Z,52.50
2018-12-17T16:07:20.671Z,48.42
2018-12-17T16:09:51.153Z,55.28
2018-12-17T16:12:20.824Z,55.88
2018-12-17T16:14:49.732Z,51.90
2018-12-17T16:17:19.331Z,53.00
2018-12-17T16:19:48.245Z,55.12
2018-12-17T16:22:17.159Z,59.88
2018-12-17T16:24:46.464Z,58.60
2018-12-17T16:27:19.326Z,55.98
2018-12-17T16:29:46.336Z,64.50
2018-12-17T16:32:14.896Z,57.50
2018-12-17T16:34:43.411Z,57.25
2018-12-17T16:37:13.315Z,53.17
2018-12-17T16:39:42.224Z,54.23
2018-12-17T16:42:11.103Z,57.43
2018-12-17T16:44:39.646Z,58.15
2018-12-17T16:47:08.948Z,77.75
2018-12-17T16:49:37.483Z,56.15
2018-12-17T16:52:06.454Z,59.00
2018-12-17T16:54:36.746Z,57.60
2018-12-17T16:57:05.577Z,52.00
2018-12-17T16:59:34.085Z,36.55
2018-12-17T17:02:04.628Z,56.63
2018-12-17T17:04:50.496Z,53.87
2018-12-17T19:18:16.139Z,59.42
2018-12-17T19:20:55.061Z,62.62
2018-12-17T19:23:23.560Z,57.10
2018-12-17T19:25:53.301Z,54.73
2018-12-17T19:28:21.855Z,57.60
2018-12-17T19:30:51.388Z,56.88
2018-12-17T19:36:12.478Z,52.17
2018-12-17T19:38:41.192Z,48.68
2018-12-17T19:41:09.818Z,59.27
2018-12-17T19:43:38.979Z,68.80
2018-12-17T19:46:09.220Z,52.67
2018-12-17T19:48:38.542Z,51.42
2018-12-17T19:57:32.393Z,51.48
2018-12-17T20:00:01.620Z,51.10
2018-12-17T20:02:30.654Z,50.03
2018-12-17T20:05:12.342Z,55.85
2018-12-17T20:07:45.103Z,52.58
2018-12-17T20:10:20.924Z,53.50
2018-12-17T20:12:57.463Z,52.58
2018-12-17T20:15:26.631Z,54.30
2018-12-17T20:17:55.804Z,56.48
2018-12-17T20:20:24.332Z,49.90
2018-12-17T20:22:53.221Z,55.05
2018-12-17T20:25:22.205Z,56.35
2018-12-17T20:27:53.115Z,58.25
2018-12-17T20:30:24.069Z,48.98
2018-12-17T20:32:54.204Z,48.78
2018-12-17T20:35:24.195Z,48.08
2018-12-17T20:37:54.038Z,51.00
2018-12-17T20:40:23.591Z,57.48
2018-12-17T20:42:54.805Z,49.80
2018-12-17T20:45:24.115Z,51.85
2018-12-17T20:47:52.930Z,55.00
2018-12-17T20:50:21.527Z,47.67
2018-12-17T20:52:50.372Z,52.60
2018-12-17T20:55:19.659Z,44.33
2018-12-17T20:57:48.235Z,52.93
2018-12-17T21:00:17.040Z,45.58
2018-12-17T21:02:45.596Z,50.75
2018-12-17T21:05:14.749Z,51.02
2018-12-17T21:08:03.676Z,47.48
2018-12-17T21:13:15.004Z,50.80
2018-12-17T21:15:43.557Z,55.08
2018-12-17T21:18:12.864Z,49.35
2018-12-17T21:20:42.513Z,46.95
2018-12-17T21:23:11.059Z,42.30
2018-12-17T21:25:39.628Z,47.78
2018-12-17T21:28:08.301Z,46.53
2018-12-17T21:30:36.823Z,52.23
2018-12-17T21:33:06.959Z,43.83
2018-12-17T21:35:36.215Z,45.65
2018-12-17T21:38:05.130Z,46.02
2018-12-17T21:40:34.434Z,44.58
2018-12-17T21:43:03.692Z,41.95
2018-12-17T21:45:32.219Z,44.13
2018-12-17T21:48:00.768Z,44.27
2018-12-17T21:50:29.701Z,44.10
2018-12-17T21:52:58.233Z,41.65
2018-12-17T21:55:27.173Z,45.05
2018-12-17T21:57:56.705Z,48.08
2018-12-17T22:00:25.772Z,43.23
2018-12-17T22:02:54.396Z,43.38
2018-12-17T22:05:23.071Z,46.18
2018-12-17T22:07:52.225Z,42.20
2018-12-17T22:10:25.975Z,47.62
2018-12-17T22:12:55.428Z,42.38
2018-12-17T22:15:24.180Z,41.50
2018-12-17T22:17:52.861Z,45.35
2018-12-17T22:20:23.149Z,53.35
2018-12-17T22:22:58.617Z,47.03
2018-12-17T22:25:28.395Z,42.17
2018-12-17T22:27:57.916Z,45.58
2018-12-17T22:30:26.511Z,42.10
2018-12-17T22:32:55.086Z,46.37
2018-12-17T22:35:23.668Z,49.95
2018-12-17T22:37:52.255Z,45.88
2018-12-17T22:40:22.418Z,49.80
2018-12-17T22:42:51.393Z,47.00
2018-12-17T22:45:20.798Z,45.03
2018-12-17T22:47:49.419Z,45.33
2018-12-17T22:50:18.616Z,49.60
2018-12-17T22:52:47.448Z,51.73
2018-12-17T22:55:16.398Z,50.23
2018-12-17T22:57:45.848Z,50.58
2018-12-17T23:00:15.655Z,51.70
2018-12-17T23:02:44.364Z,47.78
2018-12-17T23:05:13.355Z,48.73
2018-12-17T23:07:42.554Z,50.60
2018-12-17T23:10:23.047Z,47.35
2018-12-17T23:13:03.259Z,47.90
2018-12-17T23:15:43.718Z,47.43
2018-12-17T23:18:11.669Z,45.63
2018-12-17T23:20:42.667Z,46.95
2018-12-17T23:23:12.693Z,47.15
2018-12-17T23:25:41.974Z,47.50
2018-12-17T23:28:11.884Z,46.77
2018-12-17T23:30:43.648Z,42.67
2018-12-17T23:33:16.911Z,51.65
2018-12-17T23:35:47.624Z,44.45
2018-12-17T23:38:16.713Z,54.58
2018-12-17T23:40:45.790Z,47.62
2018-12-17T23:43:14.905Z,46.40
2018-12-17T23:45:44.394Z,47.67
2018-12-17T23:48:13.188Z,46.98
2018-12-17T23:50:44.092Z,54.15
2018-12-17T23:53:12.762Z,53.78
2018-12-17T23:55:42.916Z,52.50
2018-12-17T23:58:12.268Z,51.18
